Time;durP1;ratioP1;P1;durP2;ratioP2;P2;SDS_P1;SDS_P2;PMS_P1;PMS_P2;Temp;Humidity;BMP_temperature;BMP_pressure;BME280_temperature;BME280_humidity;BME280_pressure;Samples;Min_cycle;Max_cycle;Signal;HPM_P1;HPM_P2
2022/09/17 00:00:57;;;;;;;;;;;;;;;-144.48;100.00;62369.91;4972196;28;20001;-68
2022/09/17 00:03:23;;;;;;;;;;;;;;;-144.48;100.00;62369.91;4966507;28;19918;-66
2022/09/17 00:05:57;;;;;;;;;;;;;;;-144.48;100.00;62369.91;4955612;28;20395;-67
2022/09/17 00:08:22;;;;;;;;;;;;;;;-144.48;100.00;62369.91;4972467;28;19910;-70
2022/09/17 00:10:47;;;;;;;;;;;;;;;-144.48;100.00;62369.91;4972072;28;19992;-69
2022/09/17 00:13:12;;;;;;;;;;;;;;;-144.48;100.00;62369.91;4984469;28;19905;-67
2022/09/17 00:15:41;;;;;;;;;;;;;;;-144.48;100.00;62369.91;4993175;28;19993;-68
2022/09/17 00:18:06;;;;;;;;;;;;;;;-144.48;100.00;62369.91;4973975;28;19917;-66
2022/09/17 00:20:36;;;;;;;;;;;;;;;-144.48;100.00;62369.91;4969857;28;19997;-67
2022/09/17 00:23:01;;;;;;;;;;;;;;;-144.48;100.00;62369.91;4973893;28;20382;-70
2022/09/17 00:25:26;;;;;;;;;;;;;;;-144.48;100.00;62369.91;4982398;28;19957;-68
2022/09/17 00:27:51;;;;;;;;;;;;;;;-144.48;100.00;62369.91;4976591;28;20287;-68
2022/09/17 00:30:17;;;;;;;;;;;;;;;-144.48;100.00;62369.91;4975765;28;19929;-67
2022/09/17 00:32:42;;;;;;;;;;;;;;;-144.48;100.00;62369.91;4979536;28;20251;-66
2022/09/17 00:35:07;;;;;;;;;;;;;;;-144.48;100.00;62369.91;4974208;28;19921;-68
2022/09/17 00:37:33;;;;;;;;;;;;;;;-144.48;100.00;62369.91;4971105;28;19965;-65
2022/09/17 00:39:58;;;;;;;;;;;;;;;-144.48;100.00;62369.91;4978753;28;19913;-67
2022/09/17 00:42:23;;;;;;;;;;;;;;;-144.48;100.00;62369.91;4976241;28;20096;-67
2022/09/17 00:44:52;;;;;;;;;;;;;;;-144.48;100.00;62369.91;4975020;28;19949;-68
2022/09/17 00:47:21;;;;;;;;;;;;;;;-144.48;100.00;62369.91;4971932;28;19914;-67
2022/09/17 00:49:47;;;;;;;;;;;;;;;-144.48;100.00;62369.91;4974020;28;20360;-67
2022/09/17 00:52:17;;;;;;;;;;;;;;;-144.48;100.00;62369.91;4974746;28;19910;-67
2022/09/17 00:54:44;;;;;;;;;;;;;;;-144.48;100.00;62369.91;4964669;28;19915;-69
2022/09/17 00:57:10;;;;;;;;;;;;;;;-144.48;100.00;62369.91;4976482;28;19914;-68
2022/09/17 00:59:35;;;;;;;;;;;;;;;-144.48;100.00;62369.91;4967857;28;19910;-65
2022/09/17 01:02:01;;;;;;;;;;;;;;;-144.48;100.00;62369.91;4975341;28;19910;-68
2022/09/17 01:04:26;;;;;;;;;;;;;;;-144.48;100.00;62369.91;4987959;28;19910;-66
2022/09/17 01:06:51;;;;;;;;;;;;;;;-144.48;100.00;62369.91;4965855;28;19912;-67
2022/09/17 01:09:38;;;;;;;;;;;;;;;-144.48;100.00;62369.91;4970206;28;19907;-66
2022/09/17 01:12:03;;;;;;;;;;;;;;;-144.48;100.00;62369.91;4981220;28;19964;-70
2022/09/17 01:14:48;;;;;;;;;;;;;;;-144.48;100.00;62369.91;4989706;28;19909;-67
2022/09/17 01:17:18;;;;;;;;;;;;;;;-144.48;100.00;62369.91;4975764;28;19964;-68
2022/09/17 01:19:49;;;;;;;;;;;;;;;-144.48;100.00;62369.91;4960789;28;19914;-68
2022/09/17 01:22:23;;;;;;;;;;;;;;;-144.48;100.00;62369.91;4972551;28;20276;-67
2022/09/17 01:24:59;;;;;;;;;;;;;;;-144.48;100.00;62369.91;4977712;28;19924;-67
2022/09/17 01:27:47;;;;;;;;;;;;;;;-144.48;100.00;62369.91;4982884;28;20004;-66
2022/09/17 01:30:31;;;;;;;;;;;;;;;-144.48;100.00;62369.91;4953687;28;20368;-68
2022/09/17 01:33:20;;;;;;;;;;;;;;;-144.48;100.00;62369.91;4973005;28;19910;-66
2022/09/17 01:35:51;;;;;;;;;;;;;;;-144.48;100.00;62369.91;4991711;28;19905;-68
2022/09/17 01:38:17;;;;;;;;;;;;;;;-144.48;100.00;62369.91;4978531;28;19945;-65
2022/09/17 01:40:45;;;;;;;;;;;;;;;-144.48;100.00;62369.91;4970453;28;19913;-70
2022/09/17 01:43:29;;;;;;;;;;;;;;;-144.48;100.00;62369.91;4974468;28;19905;-68
2022/09/17 01:45:57;;;;;;;;;;;;;;;-144.48;100.00;62369.91;4992782;28;19917;-67
2022/09/17 01:48:26;;;;;;;;;;;;;;;-144.48;100.00;62369.91;4968748;28;19916;-69
2022/09/17 01:50:59;;;;;;;;;;;;;;;-144.48;100.00;62369.91;4963827;28;20001;-66
2022/09/17 01:53:29;;;;;;;;;;;;;;;-144.48;100.00;62369.91;4976857;28;19917;-67
2022/09/17 01:55:57;;;;;;;;;;;;;;;-144.48;100.00;62369.91;4961863;28;19909;-68
2022/09/17 01:58:26;;;;;;;;;;;;;;;-144.48;100.00;62369.91;4968329;28;19914;-66
2022/09/17 02:00:57;;;;;;;;;;;;;;;-144.48;100.00;62369.91;4954659;28;19911;-68
2022/09/17 02:03:54;;;;;;;;;;;;;;;-144.48;100.00;62369.91;4968166;28;19907;-67
2022/09/17 02:06:23;;;;;;;;;;;;;;;-144.48;100.00;62369.91;4956935;28;19909;-66
2022/09/17 02:09:24;;;;;;;;;;;;;;;-144.48;100.00;62369.91;4971645;28;19914;-67
2022/09/17 02:11:51;;;;;;;;;;;;;;;-144.48;100.00;62369.91;4951869;28;20056;-67
2022/09/17 02:14:28;;;;;;;;;;;;;;;-144.48;100.00;62369.91;4979225;28;19906;-67
2022/09/17 02:17:02;;;;;;;;;;;;;;;-144.48;100.00;62369.91;4985069;28;19965;-69
2022/09/17 02:19:29;;;;;;;;;;;;;;;-144.48;100.00;62369.91;4985044;28;19959;-68
2022/09/17 02:22:12;;;;;;;;;;;;;;;-144.48;100.00;62369.91;4974805;28;20005;-68
2022/09/17 02:24:44;;;;;;;;;;;;;;;-144.48;100.00;62369.91;4971501;28;19914;-67
2022/09/17 02:27:09;;;;;;;;;;;;;;;-144.48;100.00;62369.91;4958686;28;20008;-67
2022/09/17 02:29:40;;;;;;;;;;;;;;;-144.48;100.00;62369.91;4985012;28;19948;-66
2022/09/17 02:32:06;;;;;;;;;;;;;;;-144.48;100.00;62369.91;4968109;28;19912;-66
2022/09/17 02:34:31;;;;;;;;;;;;;;;-144.48;100.00;62369.91;4968355;28;19906;-68
2022/09/17 02:36:59;;;;;;;;;;;;;;;-144.48;100.00;62369.91;4961543;28;20291;-66
2022/09/17 02:39:25;;;;;;;;;;;;;;;-144.48;100.00;62369.91;4972209;28;20383;-66
2022/09/17 02:42:03;;;;;;;;;;;;;;;-144.48;100.00;62369.91;4979657;28;19989;-67
2022/09/17 02:44:37;;;;;;;;;;;;;;;-144.48;100.00;62369.91;4989058;28;19909;-68
2022/09/17 02:47:11;;;;;;;;;;;;;;;-144.48;100.00;62369.91;4962627;28;20327;-67
2022/09/17 02:49:48;;;;;;;;;;;;;;;-144.48;100.00;62369.91;4962521;28;19921;-67
2022/09/17 02:52:14;;;;;;;;;;;;;;;-144.48;100.00;62369.91;4983622;28;19905;-67
2022/09/17 02:54:39;;;;;;;;;;;;;;;-144.48;100.00;62369.91;4968069;28;20005;-67
2022/09/17 02:57:13;;;;;;;;;;;;;;;-144.48;100.00;62369.91;4970612;28;19949;-68
2022/09/17 02:59:41;;;;;;;;;;;;;;;-144.48;100.00;62369.91;4973887;28;19912;-64
2022/09/17 03:02:11;;;;;;;;;;;;;;;-144.48;100.00;62369.91;4963454;28;20400;-67
2022/09/17 03:04:37;;;;;;;;;;;;;;;-144.48;100.00;62369.91;4989255;28;19910;-66
2022/09/17 03:07:10;;;;;;;;;;;;;;;-144.48;100.00;62369.91;4975801;28;20016;-66
2022/09/17 03:09:36;;;;;;;;;;;;;;;-144.48;100.00;62369.91;4962531;28;19917;-67
2022/09/17 03:12:01;;;;;;;;;;;;;;;-144.48;100.00;62369.91;4987151;28;19910;-66
2022/09/17 03:14:27;;;;;;;;;;;;;;;-144.48;100.00;62369.91;4986868;28;19969;-68
2022/09/17 03:16:52;;;;;;;;;;;;;;;-144.48;100.00;62369.91;4982026;28;19910;-66
2022/09/17 03:19:17;;;;;;;;;;;;;;;-144.48;100.00;62369.91;4962998;28;19906;-67
2022/09/17 03:21:42;;;;;;;;;;;;;;;-144.48;100.00;62369.91;4959628;28;19906;-66
2022/09/17 03:24:09;;;;;;;;;;;;;;;-144.48;100.00;62369.91;4970674;28;20004;-68
2022/09/17 03:26:34;;;;;;;;;;;;;;;-144.48;100.00;62369.91;4989413;28;20384;-68
2022/09/17 03:29:00;;;;;;;;;;;;;;;-144.48;100.00;62369.91;4973073;28;19906;-66
2022/09/17 03:31:25;;;;;;;;;;;;;;;-144.48;100.00;62369.91;4960164;28;19906;-68
2022/09/17 03:33:50;;;;;;;;;;;;;;;-144.48;100.00;62369.91;4972910;28;20001;-67
2022/09/17 03:36:16;;;;;;;;;;;;;;;-144.48;100.00;62369.91;4971168;28;20383;-67
2022/09/17 03:38:41;;;;;;;;;;;;;;;-144.48;100.00;62369.91;4963932;28;19925;-65
2022/09/17 03:41:06;;;;;;;;;;;;;;;-144.48;100.00;62369.91;4987270;28;19909;-68
2022/09/17 03:43:32;;;;;;;;;;;;;;;-144.48;100.00;62369.91;4985094;28;19906;-67
2022/09/17 03:45:57;;;;;;;;;;;;;;;-144.48;100.00;62369.91;4985424;28;19912;-67
2022/09/17 03:48:22;;;;;;;;;;;;;;;-144.48;100.00;62369.91;4968732;28;19917;-67
2022/09/17 03:50:48;;;;;;;;;;;;;;;-144.48;100.00;62369.91;4982385;28;19913;-68
2022/09/17 03:53:13;;;;;;;;;;;;;;;-144.48;100.00;62369.91;4989648;28;19905;-66
2022/09/17 03:55:39;;;;;;;;;;;;;;;-144.48;100.00;62369.91;4965947;28;20360;-68
2022/09/17 03:58:04;;;;;;;;;;;;;;;-144.48;100.00;62369.91;4966286;28;20447;-67
2022/09/17 04:00:29;;;;;;;;;;;;;;;-144.48;100.00;62369.91;4966084;28;19910;-67
2022/09/17 04:02:54;;;;;;;;;;;;;;;-144.48;100.00;62369.91;4988380;28;19910;-67
2022/09/17 04:05:20;;;;;;;;;;;;;;;-144.48;100.00;62369.91;4956166;28;19910;-66
2022/09/17 04:07:45;;;;;;;;;;;;;;;-144.48;100.00;62369.91;4984919;28;20001;-68
2022/09/17 04:10:10;;;;;;;;;;;;;;;-144.48;100.00;62369.91;4973832;28;20000;-66
2022/09/17 04:12:36;;;;;;;;;;;;;;;-144.48;100.00;62369.91;4979349;28;19910;-65
2022/09/17 04:15:01;;;;;;;;;;;;;;;-144.48;100.00;62369.91;4968147;28;20039;-68
2022/09/17 04:17:26;;;;;;;;;;;;;;;-144.48;100.00;62369.91;4972683;28;20292;-66
2022/09/17 04:19:54;;;;;;;;;;;;;;;-144.48;100.00;62369.91;4956630;28;19919;-67
2022/09/17 04:22:19;;;;;;;;;;;;;;;-144.48;100.00;62369.91;4985600;28;20025;-66
2022/09/17 04:24:45;;;;;;;;;;;;;;;-144.48;100.00;62369.91;4975840;28;19918;-67
2022/09/17 04:27:10;;;;;;;;;;;;;;;-144.48;100.00;62369.91;4960468;28;19913;-66
2022/09/17 04:29:35;;;;;;;;;;;;;;;-144.48;100.00;62369.91;4973995;28;19921;-67
2022/09/17 04:32:00;;;;;;;;;;;;;;;-144.48;100.00;62369.91;4992951;28;19906;-69
2022/09/17 04:34:26;;;;;;;;;;;;;;;-144.48;100.00;62369.91;4993075;28;19982;-69
2022/09/17 04:36:51;;;;;;;;;;;;;;;-144.48;100.00;62369.91;4960778;28;19910;-67
2022/09/17 04:39:16;;;;;;;;;;;;;;;-144.48;100.00;62369.91;4984814;23;19929;-69
2022/09/17 04:41:41;;;;;;;;;;;;;;;-144.48;100.00;62369.91;4972672;28;20487;-68
2022/09/17 04:44:07;;;;;;;;;;;;;;;-144.48;100.00;62369.91;4970791;28;19922;-70
2022/09/17 04:46:32;;;;;;;;;;;;;;;-144.48;100.00;62369.91;4963919;28;19914;-70
2022/09/17 04:48:57;;;;;;;;;;;;;;;-144.48;100.00;62369.91;4972899;28;19909;-71
2022/09/17 04:51:22;;;;;;;;;;;;;;;-144.48;100.00;62369.91;4972482;28;19917;-70
2022/09/17 04:53:48;;;;;;;;;;;;;;;-144.48;100.00;62369.91;4973673;28;20446;-70
2022/09/17 04:56:13;;;;;;;;;;;;;;;-144.48;100.00;62369.91;4972136;28;19953;-68
2022/09/17 04:58:38;;;;;;;;;;;;;;;-144.48;100.00;62369.91;4971531;28;19906;-69
2022/09/17 05:01:03;;;;;;;;;;;;;;;-144.48;100.00;62369.91;4972822;28;20451;-68
2022/09/17 05:03:29;;;;;;;;;;;;;;;-144.48;100.00;62369.91;4972746;28;19922;-69
2022/09/17 05:05:54;;;;;;;;;;;;;;;-144.48;100.00;62369.91;4986248;28;19910;-69
2022/09/17 05:08:21;;;;;;;;;;;;;;;-144.48;100.00;62369.91;4974636;28;19964;-67
2022/09/17 05:10:48;;;;;;;;;;;;;;;-144.48;100.00;62369.91;4986043;28;19914;-70
2022/09/17 05:13:13;;;;;;;;;;;;;;;-144.48;100.00;62369.91;4972196;28;20368;-69
2022/09/17 05:15:38;;;;;;;;;;;;;;;-144.48;100.00;62369.91;4973150;28;19913;-70
2022/09/17 05:18:03;;;;;;;;;;;;;;;-144.48;100.00;62369.91;4970538;28;19929;-70
2022/09/17 05:20:29;;;;;;;;;;;;;;;-144.48;100.00;62369.91;4971530;28;19921;-69
2022/09/17 05:22:54;;;;;;;;;;;;;;;-144.48;100.00;62369.91;4972667;28;19928;-70
2022/09/17 05:25:23;;;;;;;;;;;;;;;-144.48;100.00;62369.91;4975905;28;19918;-69
2022/09/17 05:27:48;;;;;;;;;;;;;;;-144.48;100.00;62369.91;4970879;28;20496;-72
2022/09/17 05:30:14;;;;;;;;;;;;;;;-144.48;100.00;62369.91;4971593;28;19917;-68
2022/09/17 05:32:39;;;;;;;;;;;;;;;-144.48;100.00;62369.91;4972050;28;20363;-65
2022/09/17 05:35:05;;;;;;;;;;;;;;;-144.48;100.00;62369.91;4971370;28;19906;-69
2022/09/17 05:37:30;;;;;;;;;;;;;;;-144.48;100.00;62369.91;4971143;28;19906;-69
2022/09/17 05:39:55;;;;;;;;;;;;;;;-144.48;100.00;62369.91;4972400;28;19910;-69
2022/09/17 05:42:21;;;;;;;;;;;;;;;-144.48;100.00;62369.91;4972269;28;19906;-71
2022/09/17 05:44:46;;;;;;;;;;;;;;;-144.48;100.00;62369.91;4971586;28;19910;-69
2022/09/17 05:47:11;;;;;;;;;;;;;;;-144.48;100.00;62369.91;4971090;28;19913;-70
2022/09/17 05:49:36;;;;;;;;;;;;;;;-144.48;100.00;62369.91;4971256;28;19914;-70
2022/09/17 05:52:02;;;;;;;;;;;;;;;-144.48;100.00;62369.91;4971592;28;20005;-70
2022/09/17 05:54:28;;;;;;;;;;;;;;;-144.48;100.00;62369.91;4982746;28;19968;-70
2022/09/17 05:56:53;;;;;;;;;;;;;;;-144.48;100.00;62369.91;4970874;28;19910;-71
2022/09/17 05:59:18;;;;;;;;;;;;;;;-144.48;100.00;62369.91;4986167;28;19965;-70
2022/09/17 06:01:44;;;;;;;;;;;;;;;-144.48;100.00;62369.91;4971755;28;19940;-70
2022/09/17 06:04:09;;;;;;;;;;;;;;;-144.48;100.00;62369.91;4966724;28;19910;-70
2022/09/17 06:06:36;;;;;;;;;;;;;;;-144.48;100.00;62369.91;4966791;28;19906;-69
2022/09/17 06:09:02;;;;;;;;;;;;;;;-144.48;100.00;62369.91;4972873;28;19916;-70
2022/09/17 06:11:27;;;;;;;;;;;;;;;-144.48;100.00;62369.91;4971390;28;19997;-69
2022/09/17 06:13:53;;;;;;;;;;;;;;;-144.48;100.00;62369.91;4985944;28;19913;-68
2022/09/17 06:16:19;;;;;;;;;;;;;;;-144.48;100.00;62369.91;4970113;28;19972;-69
2022/09/17 06:18:44;;;;;;;;;;;;;;;-144.48;100.00;62369.91;4970857;28;19941;-71
2022/09/17 06:21:10;;;;;;;;;;;;;;;-144.48;100.00;62369.91;4970744;28;20394;-70
2022/09/17 06:23:36;;;;;;;;;;;;;;;-144.48;100.00;62369.91;4973976;28;19992;-72
2022/09/17 06:26:02;;;;;;;;;;;;;;;-144.48;100.00;62369.91;4960898;28;19917;-72
2022/09/17 06:28:27;;;;;;;;;;;;;;;-144.48;100.00;62369.91;4970033;28;19913;-70
2022/09/17 06:30:54;;;;;;;;;;;;;;;-144.48;100.00;62369.91;4971316;28;20426;-68
2022/09/17 06:33:20;;;;;;;;;;;;;;;-144.48;100.00;62369.91;4970806;28;19913;-71
2022/09/17 06:35:45;;;;;;;;;;;;;;;-144.48;100.00;62369.91;4970661;28;19910;-70
2022/09/17 06:38:11;;;;;;;;;;;;;;;-144.48;100.00;62369.91;4969063;28;20307;-70
2022/09/17 06:40:36;;;;;;;;;;;;;;;-144.48;100.00;62369.91;4976055;28;19914;-70
2022/09/17 06:43:01;;;;;;;;;;;;;;;-144.48;100.00;62369.91;4971001;28;20004;-71
2022/09/17 06:45:26;;;;;;;;;;;;;;;-144.48;100.00;62369.91;4970930;28;19925;-68
2022/09/17 06:47:52;;;;;;;;;;;;;;;-144.48;100.00;62369.91;4965735;28;20056;-70
2022/09/17 06:50:17;;;;;;;;;;;;;;;-144.48;100.00;62369.91;4970651;28;19910;-71
2022/09/17 06:52:48;;;;;;;;;;;;;;;-144.48;100.00;62369.91;4970410;28;20016;-68
2022/09/17 06:55:14;;;;;;;;;;;;;;;-144.48;100.00;62369.91;4976237;28;19965;-71
2022/09/17 06:57:40;;;;;;;;;;;;;;;-144.48;100.00;62369.91;4969875;28;19910;-69
2022/09/17 07:00:06;;;;;;;;;;;;;;;-144.48;100.00;62369.91;4970334;28;19906;-70
2022/09/17 07:02:31;;;;;;;;;;;;;;;-144.48;100.00;62369.91;4970718;28;20011;-70
2022/09/17 07:04:56;;;;;;;;;;;;;;;-144.48;100.00;62369.91;4970057;28;19957;-69
2022/09/17 07:07:22;;;;;;;;;;;;;;;-144.48;100.00;62369.91;4969853;28;19906;-70
2022/09/17 07:09:47;;;;;;;;;;;;;;;-144.48;100.00;62369.91;4979876;28;19978;-71
2022/09/17 07:12:13;;;;;;;;;;;;;;;-144.48;100.00;62369.91;4972299;28;19906;-71
2022/09/17 07:14:38;;;;;;;;;;;;;;;-144.48;100.00;62369.91;4970443;28;20496;-72
2022/09/17 07:17:03;;;;;;;;;;;;;;;-144.48;100.00;62369.91;4970105;28;20459;-70
2022/09/17 07:19:29;;;;;;;;;;;;;;;-144.48;100.00;62369.91;4969002;28;19925;-70
2022/09/17 07:21:54;;;;;;;;;;;;;;;-144.48;100.00;62369.91;4970499;28;19918;-70
2022/09/17 07:24:19;;;;;;;;;;;;;;;-144.48;100.00;62369.91;4972160;28;19920;-72
2022/09/17 07:26:44;;;;;;;;;;;;;;;-144.48;100.00;62369.91;4969944;28;19916;-70
2022/09/17 07:29:11;;;;;;;;;;;;;;;-144.48;100.00;62369.91;4971037;28;19912;-70
2022/09/17 07:31:36;;;;;;;;;;;;;;;-144.48;100.00;62369.91;4971959;28;19917;-70
2022/09/17 07:34:01;;;;;;;;;;;;;;;-144.48;100.00;62369.91;4974649;28;19910;-70
2022/09/17 07:36:26;;;;;;;;;;;;;;;-144.48;100.00;62369.91;4971736;28;19918;-71
2022/09/17 07:38:52;;;;;;;;;;;;;;;-144.48;100.00;62369.91;4973945;28;20244;-71
2022/09/17 07:41:17;;;;;;;;;;;;;;;-144.48;100.00;62369.91;4982569;28;20601;-69
2022/09/17 07:43:43;;;;;;;;;;;;;;;-144.48;100.00;62369.91;4973324;28;19906;-70
2022/09/17 07:46:13;;;;;;;;;;;;;;;-144.48;100.00;62369.91;4973754;28;19906;-69
2022/09/17 07:48:39;;;;;;;;;;;;;;;-144.48;100.00;62369.91;4973284;28;20037;-71
2022/09/17 07:51:04;;;;;;;;;;;;;;;-144.48;100.00;62369.91;4973245;28;19989;-71
2022/09/17 07:53:29;;;;;;;;;;;;;;;-144.48;100.00;62369.91;4973153;28;19968;-70
2022/09/17 07:55:56;;;;;;;;;;;;;;;-144.48;100.00;62369.91;4978195;28;19952;-70
2022/09/17 07:58:22;;;;;;;;;;;;;;;-144.48;100.00;62369.91;4972465;28;20310;-68
2022/09/17 08:00:47;;;;;;;;;;;;;;;-144.48;100.00;62369.91;4973715;28;20005;-70
2022/09/17 08:03:13;;;;;;;;;;;;;;;-144.48;100.00;62369.91;4972007;28;19913;-71
2022/09/17 08:05:38;;;;;;;;;;;;;;;-144.48;100.00;62369.91;4970381;28;19954;-70
2022/09/17 08:08:03;;;;;;;;;;;;;;;-144.48;100.00;62369.91;4972126;28;20356;-70
2022/09/17 08:10:29;;;;;;;;;;;;;;;-144.48;100.00;62369.91;4976442;28;20406;-68
2022/09/17 08:12:55;;;;;;;;;;;;;;;-144.48;100.00;62369.91;4967888;28;19910;-68
2022/09/17 08:15:21;;;;;;;;;;;;;;;-144.48;100.00;62369.91;4972984;28;19956;-70
2022/09/17 08:17:46;;;;;;;;;;;;;;;-144.48;100.00;62369.91;4973007;28;19945;-70
2022/09/17 08:20:12;;;;;;;;;;;;;;;-144.48;100.00;62369.91;4972189;28;20427;-71
2022/09/17 08:22:37;;;;;;;;;;;;;;;-144.48;100.00;62369.91;4972821;28;19964;-70
2022/09/17 08:25:03;;;;;;;;;;;;;;;-144.48;100.00;62369.91;4976079;28;19910;-70
2022/09/17 08:27:29;;;;;;;;;;;;;;;-144.48;100.00;62369.91;4972485;28;20002;-71
2022/09/17 08:29:55;;;;;;;;;;;;;;;-144.48;100.00;62369.91;4971440;28;19906;-70
2022/09/17 08:32:20;;;;;;;;;;;;;;;-144.48;100.00;62369.91;4972872;28;19916;-70
2022/09/17 08:34:45;;;;;;;;;;;;;;;-144.48;100.00;62369.91;4969936;28;19918;-70
2022/09/17 08:37:10;;;;;;;;;;;;;;;-144.48;100.00;62369.91;4971872;28;20401;-69
2022/09/17 08:39:35;;;;;;;;;;;;;;;-144.48;100.00;62369.91;4971323;28;19917;-69
2022/09/17 08:42:06;;;;;;;;;;;;;;;-144.48;100.00;62369.91;4960559;28;19964;-70
2022/09/17 08:44:42;;;;;;;;;;;;;;;-144.48;100.00;62369.91;4971187;28;19972;-67
2022/09/17 08:47:17;;;;;;;;;;;;;;;-144.48;100.00;62369.91;4969604;28;19914;-70
2022/09/17 08:49:53;;;;;;;;;;;;;;;-144.48;100.00;62369.91;4971814;28;19910;-70
2022/09/17 08:52:18;;;;;;;;;;;;;;;-144.48;100.00;62369.91;4972325;28;19906;-68
2022/09/17 08:54:44;;;;;;;;;;;;;;;-144.48;100.00;62369.91;4975798;28;19916;-68
2022/09/17 08:57:12;;;;;;;;;;;;;;;-144.48;100.00;62369.91;4978377;28;19906;-68
2022/09/17 08:59:48;;;;;;;;;;;;;;;-144.48;100.00;62369.91;4971805;28;19906;-70
2022/09/17 09:02:16;;;;;;;;;;;;;;;-144.48;100.00;62369.91;4972468;28;20511;-71
2022/09/17 09:05:05;;;;;;;;;;;;;;;-144.48;100.00;62369.91;4971428;28;20281;-71
2022/09/17 09:07:36;;;;;;;;;;;;;;;-144.48;100.00;62369.91;4970604;28;20046;-68
2022/09/17 09:10:17;;;;;;;;;;;;;;;-144.48;100.00;62369.91;4965389;28;20009;-69
2022/09/17 09:12:43;;;;;;;;;;;;;;;-144.48;100.00;62369.91;4972166;28;20435;-68
2022/09/17 09:15:08;;;;;;;;;;;;;;;-144.48;100.00;62369.91;4971263;28;19914;-71
2022/09/17 09:17:45;;;;;;;;;;;;;;;-144.48;100.00;62369.91;4971458;28;20295;-67
2022/09/17 09:20:16;;;;;;;;;;;;;;;-144.48;100.00;62369.91;4958737;28;19906;-69
2022/09/17 09:22:46;;;;;;;;;;;;;;;-144.48;100.00;62369.91;4971276;28;20298;-70
2022/09/17 09:25:14;;;;;;;;;;;;;;;-144.48;100.00;62369.91;4977292;28;19963;-70
2022/09/17 09:27:46;;;;;;;;;;;;;;;-144.48;100.00;62369.91;4989789;28;19906;-71
2022/09/17 09:30:13;;;;;;;;;;;;;;;-144.48;100.00;62369.91;4971159;28;20193;-68
2022/09/17 09:32:39;;;;;;;;;;;;;;;-144.48;100.00;62369.91;4971529;28;20363;-70
2022/09/17 09:35:16;;;;;;;;;;;;;;;-144.48;100.00;62369.91;4971070;28;19906;-70
2022/09/17 09:37:44;;;;;;;;;;;;;;;-144.48;100.00;62369.91;4970143;28;19973;-69
2022/09/17 09:40:21;;;;;;;;;;;;;;;-144.48;100.00;62369.91;4970673;28;19948;-69
2022/09/17 09:42:48;;;;;;;;;;;;;;;-144.48;100.00;62369.91;4971789;28;20005;-69
2022/09/17 09:45:15;;;;;;;;;;;;;;;-144.48;100.00;62369.91;4971136;28;19910;-69
2022/09/17 09:47:50;;;;;;;;;;;;;;;-144.48;100.00;62369.91;4970022;28;19918;-69
2022/09/17 09:50:21;;;;;;;;;;;;;;;-144.48;100.00;62369.91;4969548;28;20008;-67
2022/09/17 09:52:52;;;;;;;;;;;;;;;-144.48;100.00;62369.91;4970520;28;20265;-68
2022/09/17 09:55:26;;;;;;;;;;;;;;;-144.48;100.00;62369.91;4974274;28;19914;-70
2022/09/17 09:57:55;;;;;;;;;;;;;;;-144.48;100.00;62369.91;4969330;28;19910;-67
2022/09/17 10:00:28;;;;;;;;;;;;;;;-144.48;100.00;62369.91;4968619;28;19922;-69
2022/09/17 10:02:58;;;;;;;;;;;;;;;-144.48;100.00;62369.91;4970907;28;19968;-69
2022/09/17 10:05:23;;;;;;;;;;;;;;;-144.48;100.00;62369.91;4968467;28;19910;-66
2022/09/17 10:07:49;;;;;;;;;;;;;;;-144.48;100.00;62369.91;4969077;28;20382;-70
2022/09/17 10:10:14;;;;;;;;;;;;;;;-144.48;100.00;62369.91;4972463;28;19963;-66
2022/09/17 10:12:39;;;;;;;;;;;;;;;-144.48;100.00;62369.91;4971498;28;19984;-67
2022/09/17 10:15:22;;;;;;;;;;;;;;;-144.48;100.00;62369.91;4970186;28;20045;-70
2022/09/17 10:17:47;;;;;;;;;;;;;;;-144.48;100.00;62369.91;4969382;28;20056;-71
2022/09/17 10:20:15;;;;;;;;;;;;;;;-144.48;100.00;62369.91;4969911;28;20000;-70
2022/09/17 10:22:44;;;;;;;;;;;;;;;-144.48;100.00;62369.91;4970305;28;19906;-70
2022/09/17 10:25:28;;;;;;;;;;;;;;;-144.48;100.00;62369.91;4969655;28;19914;-68
2022/09/17 10:27:54;;;;;;;;;;;;;;;-144.48;100.00;62369.91;4962145;28;19910;-71
2022/09/17 10:30:19;;;;;;;;;;;;;;;-144.48;100.00;62369.91;4969901;28;19910;-71
2022/09/17 10:33:04;;;;;;;;;;;;;;;-144.48;100.00;62369.91;4969923;28;20084;-71
2022/09/17 10:35:30;;;;;;;;;;;;;;;-144.48;100.00;62369.91;4960325;28;19956;-72
2022/09/17 10:37:55;;;;;;;;;;;;;;;-144.48;100.00;62369.91;4983866;23;19945;-69
2022/09/17 10:40:26;;;;;;;;;;;;;;;-144.48;100.00;62369.91;4980778;28;19972;-69
2022/09/17 10:43:13;;;;;;;;;;;;;;;-144.48;100.00;62369.91;4972430;28;20284;-68
2022/09/17 10:45:41;;;;;;;;;;;;;;;-144.48;100.00;62369.91;4967114;28;19976;-67
2022/09/17 10:48:13;;;;;;;;;;;;;;;-144.48;100.00;62369.91;4966266;28;20390;-65
2022/09/17 10:50:39;;;;;;;;;;;;;;;-144.48;100.00;62369.91;4969394;28;19937;-67
2022/09/17 10:53:05;;;;;;;;;;;;;;;-144.48;100.00;62369.91;4969426;28;20411;-68
2022/09/17 10:55:49;;;;;;;;;;;;;;;-144.48;100.00;62369.91;4970713;28;19905;-68
2022/09/17 10:58:14;;;;;;;;;;;;;;;-144.48;100.00;62369.91;4963391;28;19910;-66
2022/09/17 11:00:39;;;;;;;;;;;;;;;-144.48;100.00;62369.91;4970766;28;19906;-64
2022/09/17 11:03:17;;;;;;;;;;;;;;;-144.48;100.00;62369.91;4968095;28;20391;-69
2022/09/17 11:05:45;;;;;;;;;;;;;;;-144.48;100.00;62369.91;4960846;28;19914;-67
2022/09/17 11:08:24;;;;;;;;;;;;;;;-144.48;100.00;62369.91;4962038;28;19913;-65
2022/09/17 11:11:02;;;;;;;;;;;;;;;-144.48;100.00;62369.91;4975480;28;19984;-65
2022/09/17 11:13:35;;;;;;;;;;;;;;;-144.48;100.00;62369.91;4975441;28;19936;-67
2022/09/17 11:16:09;;;;;;;;;;;;;;;-144.48;100.00;62369.91;4974895;28;20316;-65
2022/09/17 11:18:38;;;;;;;;;;;;;;;-144.48;100.00;62369.91;4969402;28;19911;-65
2022/09/17 11:21:03;;;;;;;;;;;;;;;-144.48;100.00;62369.91;4974628;28;19906;-67
2022/09/17 11:23:47;;;;;;;;;;;;;;;-144.48;100.00;62369.91;4972384;28;20394;-68
2022/09/17 11:26:31;;;;;;;;;;;;;;;-144.48;100.00;62369.91;4978115;28;19914;-69
2022/09/17 11:28:56;;;;;;;;;;;;;;;-144.48;100.00;62369.91;4973382;28;19976;-65
2022/09/17 11:31:27;;;;;;;;;;;;;;;-144.48;100.00;62369.91;4972222;28;20489;-65
2022/09/17 11:34:18;;;;;;;;;;;;;;;-144.48;100.00;62369.91;4967396;28;19990;-67
2022/09/17 11:36:50;;;;;;;;;;;;;;;-144.48;100.00;62369.91;4960437;28;19917;-65
2022/09/17 11:39:19;;;;;;;;;;;;;;;-144.48;100.00;62369.91;4973311;28;20271;-66
2022/09/17 11:41:47;;;;;;;;;;;;;;;-144.48;100.00;62369.91;4980971;28;19909;-67
2022/09/17 11:44:21;;;;;;;;;;;;;;;-144.48;100.00;62369.91;4975582;28;19937;-66
2022/09/17 11:46:57;;;;;;;;;;;;;;;-144.48;100.00;62369.91;4970992;28;19960;-65
2022/09/17 11:49:41;;;;;;;;;;;;;;;-144.48;100.00;62369.91;4972382;28;20304;-67
2022/09/17 11:52:25;;;;;;;;;;;;;;;-144.48;100.00;62369.91;4966443;28;19914;-65
2022/09/17 11:54:56;;;;;;;;;;;;;;;-144.48;100.00;62369.91;4956953;28;19993;-64
2022/09/17 11:57:24;;;;;;;;;;;;;;;-144.48;100.00;62369.91;4970013;28;20380;-69
2022/09/17 12:00:00;;;;;;;;;;;;;;;-144.48;100.00;62369.91;4958100;28;19909;-67
2022/09/17 12:02:41;;;;;;;;;;;;;;;-144.48;100.00;62369.91;4970882;28;19910;-64
2022/09/17 12:05:12;;;;;;;;;;;;;;;-144.48;100.00;62369.91;4972254;28;20053;-64
2022/09/17 12:07:46;;;;;;;;;;;;;;;-144.48;100.00;62369.91;4965361;28;19951;-63
2022/09/17 12:10:33;;;;;;;;;;;;;;;-144.48;100.00;62369.91;4961505;28;19913;-65
2022/09/17 12:13:11;;;;;;;;;;;;;;;-144.48;100.00;62369.91;4985663;28;19977;-65
2022/09/17 12:15:39;;;;;;;;;;;;;;;-144.48;100.00;62369.91;4971997;28;20350;-65
2022/09/17 12:18:16;;;;;;;;;;;;;;;-144.48;100.00;62369.91;4970961;28;20000;-64
2022/09/17 12:20:44;;;;;;;;;;;;;;;-144.48;100.00;62369.91;4968935;28;19906;-65
2022/09/17 12:23:12;;;;;;;;;;;;;;;-144.48;100.00;62369.91;4971721;28;19917;-65
2022/09/17 12:25:45;;;;;;;;;;;;;;;-144.48;100.00;62369.91;4972819;28;20356;-66